Time;durP1;ratioP1;P1;durP2;ratioP2;P2;SDS_P1;SDS_P2;PMS_P1;PMS_P2;Temp;Humidity;BMP_temperature;BMP_pressure;BME280_temperature;BME280_humidity;BME280_pressure;Samples;Min_cycle;Max_cycle;Signal;HPM_P1;HPM_P2
2022/08/11 00:01:10;;;;;;;2.55;1.65;;;;;;;;;;5015295;28;20227;-64
2022/08/11 00:03:35;;;;;;;5.45;1.80;;;;;;;;;;5016661;28;20246;-64
2022/08/11 00:06:00;;;;;;;10.70;1.90;;;;;;;;;;5015400;28;20208;-64
2022/08/11 00:08:26;;;;;;;3.88;1.85;;;;;;;;;;5016124;28;20714;-63
2022/08/11 00:10:53;;;;;;;4.70;1.70;;;;;;;;;;5015004;28;20243;-64
2022/08/11 00:13:19;;;;;;;3.58;1.73;;;;;;;;;;5015117;28;20212;-64
2022/08/11 00:15:44;;;;;;;3.97;1.95;;;;;;;;;;5014848;28;20220;-63
2022/08/11 00:18:09;;;;;;;6.40;1.98;;;;;;;;;;5016016;28;20217;-64
2022/08/11 00:20:35;;;;;;;2.95;1.60;;;;;;;;;;5014106;28;20691;-64
2022/08/11 00:23:04;;;;;;;4.78;1.90;;;;;;;;;;5014630;28;20212;-64
2022/08/11 00:25:30;;;;;;;3.38;1.70;;;;;;;;;;5014880;28;20220;-64
2022/08/11 00:27:55;;;;;;;5.38;1.90;;;;;;;;;;5015361;28;20223;-64
2022/08/11 00:30:20;;;;;;;3.45;1.85;;;;;;;;;;5014275;28;20215;-64
2022/08/11 00:32:53;;;;;;;3.53;1.80;;;;;;;;;;5016082;28;20255;-64
2022/08/11 00:35:19;;;;;;;5.28;2.05;;;;;;;;;;5014974;28;20240;-64
2022/08/11 00:37:46;;;;;;;3.88;1.75;;;;;;;;;;5014462;28;20241;-64
2022/08/11 00:40:14;;;;;;;3.83;2.00;;;;;;;;;;5014105;28;20311;-64
2022/08/11 00:42:39;;;;;;;4.07;1.80;;;;;;;;;;5014841;28;20207;-64
2022/08/11 00:45:05;;;;;;;4.55;1.73;;;;;;;;;;5015525;28;20209;-63
2022/08/11 00:47:30;;;;;;;6.60;1.80;;;;;;;;;;5015746;28;20739;-64
2022/08/11 00:49:59;;;;;;;3.70;1.80;;;;;;;;;;5014870;28;20221;-64
2022/08/11 00:52:31;;;;;;;6.05;2.03;;;;;;;;;;5013869;28;20209;-64
2022/08/11 00:54:57;;;;;;;7.10;1.90;;;;;;;;;;5015487;28;20303;-64
2022/08/11 00:57:26;;;;;;;7.55;1.90;;;;;;;;;;5014139;28;20246;-63
2022/08/11 01:00:03;;;;;;;3.65;2.05;;;;;;;;;;5015187;28;20228;-63
2022/08/11 01:02:32;;;;;;;5.57;1.77;;;;;;;;;;5014515;28;20219;-63
2022/08/11 01:05:10;;;;;;;3.75;1.90;;;;;;;;;;5015516;28;20751;-64
2022/08/11 01:07:40;;;;;;;6.72;2.00;;;;;;;;;;5014903;28;20254;-64
2022/08/11 01:10:10;;;;;;;4.80;1.85;;;;;;;;;;5012766;28;20221;-64
2022/08/11 01:12:36;;;;;;;3.65;1.80;;;;;;;;;;5013992;28;20299;-64
2022/08/11 01:15:11;;;;;;;7.75;1.98;;;;;;;;;;5014675;28;20213;-64
2022/08/11 01:17:43;;;;;;;3.45;1.95;;;;;;;;;;5014384;28;20220;-64
2022/08/11 01:20:09;;;;;;;4.10;2.20;;;;;;;;;;5014490;28;20315;-63
2022/08/11 01:22:46;;;;;;;4.38;2.10;;;;;;;;;;5013454;28;20297;-64
2022/08/11 01:25:15;;;;;;;4.57;1.77;;;;;;;;;;5014089;28;20299;-64
2022/08/11 01:27:55;;;;;;;5.30;2.08;;;;;;;;;;5014864;28;20274;-63
2022/08/11 01:30:32;;;;;;;3.97;1.98;;;;;;;;;;5014438;28;20220;-63
2022/08/11 01:33:16;;;;;;;4.28;2.00;;;;;;;;;;5014784;28;20216;-63
2022/08/11 01:35:54;;;;;;;3.90;2.20;;;;;;;;;;5014800;28;20278;-64
2022/08/11 01:38:25;;;;;;;5.28;2.00;;;;;;;;;;5012154;28;20734;-64
2022/08/11 01:40:54;;;;;;;4.05;2.10;;;;;;;;;;5014620;28;20224;-63
2022/08/11 01:46:20;;;;;;;4.00;1.80;;;;;;;;;;5013367;28;20332;-64
2022/08/11 01:48:53;;;;;;;5.18;2.05;;;;;;;;;;5013310;28;20221;-64
2022/08/11 01:51:22;;;;;;;3.60;1.95;;;;;;;;;;5012646;28;20676;-63
2022/08/11 01:53:53;;;;;;;5.80;1.83;;;;;;;;;;5013616;28;20244;-64
2022/08/11 01:56:37;;;;;;;7.20;2.22;;;;;;;;;;5013174;28;20216;-64
2022/08/11 01:59:18;;;;;;;4.15;2.40;;;;;;;;;;5012930;28;20224;-64
2022/08/11 02:01:44;;;;;;;3.85;2.15;;;;;;;;;;5014408;28;20336;-64
2022/08/11 02:04:18;;;;;;;5.95;2.40;;;;;;;;;;5013955;28;20216;-64
2022/08/11 02:06:53;;;;;;;5.93;2.30;;;;;;;;;;5012226;28;20216;-63
2022/08/11 02:09:40;;;;;;;5.10;2.20;;;;;;;;;;5012419;28;20297;-63
2022/08/11 02:12:11;;;;;;;6.15;2.20;;;;;;;;;;5012737;28;20212;-64
2022/08/11 02:14:38;;;;;;;7.13;2.22;;;;;;;;;;5013062;28;20263;-64
2022/08/11 02:17:13;;;;;;;6.50;2.20;;;;;;;;;;5013787;28;20212;-64
2022/08/11 02:25:53;;;;;;;5.35;2.03;;;;;;;;;;5012468;28;20573;-64
2022/08/11 02:28:20;;;;;;;4.03;2.25;;;;;;;;;;5011412;28;20247;-63
2022/08/11 02:33:21;;;;;;;5.07;2.60;;;;;;;;;;5012206;28;20212;-64
2022/08/11 02:33:34;;;;;;;5.18;2.17;;;;;;;;;;5012302;28;20737;-63
2022/08/11 02:36:02;;;;;;;5.82;2.40;;;;;;;;;;5011778;28;20221;-64
2022/08/11 02:38:42;;;;;;;4.90;2.67;;;;;;;;;;5012070;28;20290;-64
2022/08/11 02:42:21;;;;;;;7.32;2.72;;;;;;;;;;5012359;28;20675;-64
2022/08/11 02:44:02;;;;;;;6.90;2.72;;;;;;;;;;5012357;28;20709;-63
2022/08/11 02:46:30;;;;;;;7.10;2.45;;;;;;;;;;5011873;28;20213;-64
2022/08/11 02:51:53;;;;;;;4.80;2.30;;;;;;;;;;5012011;28;20236;-64
2022/08/11 02:54:38;;;;;;;4.72;2.58;;;;;;;;;;5012972;28;20223;-64
2022/08/11 02:57:07;;;;;;;7.65;2.70;;;;;;;;;;5012671;28;20229;-64
2022/08/11 02:59:49;;;;;;;3.90;2.40;;;;;;;;;;5011942;28;20228;-63
2022/08/11 03:02:14;;;;;;;5.55;2.80;;;;;;;;;;5011158;28;20223;-64
2022/08/11 03:04:54;;;;;;;6.00;2.60;;;;;;;;;;5013394;28;20209;-63
2022/08/11 03:07:23;;;;;;;6.70;2.38;;;;;;;;;;5012834;28;20251;-64
2022/08/11 03:09:49;;;;;;;5.30;3.00;;;;;;;;;;5012125;28;20224;-63
2022/08/11 03:18:02;;;;;;;8.35;2.90;;;;;;;;;;5011340;28;20220;-63
2022/08/11 03:20:29;;;;;;;5.63;3.25;;;;;;;;;;5012358;28;20227;-63
2022/08/11 03:23:17;;;;;;;6.43;3.45;;;;;;;;;;5013365;28;20220;-63
2022/08/11 03:25:48;;;;;;;6.93;3.33;;;;;;;;;;5012423;28;20576;-63
2022/08/11 03:28:19;;;;;;;6.20;3.53;;;;;;;;;;5011443;28;20219;-63
2022/08/11 03:30:47;;;;;;;5.53;3.45;;;;;;;;;;5011754;28;20323;-63
2022/08/11 03:36:01;;;;;;;5.85;3.53;;;;;;;;;;5012901;28;20244;-63
2022/08/11 03:38:26;;;;;;;6.57;3.67;;;;;;;;;;5011832;28;20211;-63
2022/08/11 03:43:53;;;;;;;8.35;3.72;;;;;;;;;;5012705;28;20312;-63
2022/08/11 03:46:24;;;;;;;8.48;3.60;;;;;;;;;;5011373;28;20568;-64
2022/08/11 03:48:53;;;;;;;6.95;3.13;;;;;;;;;;5011554;28;20220;-63
2022/08/11 03:51:23;;;;;;;7.28;3.30;;;;;;;;;;5010205;28;20208;-64
2022/08/11 03:53:58;;;;;;;4.88;3.00;;;;;;;;;;5011514;28;20215;-63
2022/08/11 03:56:36;;;;;;;8.45;3.53;;;;;;;;;;5011964;28;20298;-64
2022/08/11 03:59:16;;;;;;;7.00;3.00;;;;;;;;;;5011438;28;20688;-64
2022/08/11 04:01:53;;;;;;;5.25;2.95;;;;;;;;;;5011250;28;20236;-63
2022/08/11 04:04:18;;;;;;;5.75;2.90;;;;;;;;;;5012279;28;20228;-63
2022/08/11 04:06:49;;;;;;;6.60;3.22;;;;;;;;;;5011755;28;20270;-63
2022/08/11 04:09:20;;;;;;;5.88;3.13;;;;;;;;;;5011970;28;20299;-64
2022/08/11 04:11:45;;;;;;;7.32;3.05;;;;;;;;;;5012331;28;20607;-63
2022/08/11 04:17:04;;;;;;;6.28;3.00;;;;;;;;;;5011120;28;20215;-63
2022/08/11 04:19:49;;;;;;;4.85;2.70;;;;;;;;;;5010146;28;20248;-63
2022/08/11 04:22:20;;;;;;;4.63;3.10;;;;;;;;;;5012250;28;20204;-63
2022/08/11 04:25:01;;;;;;;8.98;3.15;;;;;;;;;;5012750;28;20216;-64
2022/08/11 04:27:27;;;;;;;6.13;3.40;;;;;;;;;;5009964;28;20679;-64
2022/08/11 04:30:02;;;;;;;6.82;2.90;;;;;;;;;;5012324;28;20226;-64
2022/08/11 04:32:33;;;;;;;5.90;2.80;;;;;;;;;;5011946;28;20208;-64
2022/08/11 04:35:07;;;;;;;7.32;3.25;;;;;;;;;;5011894;28;20311;-63
2022/08/11 04:37:41;;;;;;;5.55;2.97;;;;;;;;;;5010507;28;20288;-64
2022/08/11 04:40:18;;;;;;;4.57;2.63;;;;;;;;;;5011746;28;20220;-64
2022/08/11 04:45:46;;;;;;;5.53;2.78;;;;;;;;;;5014492;28;20208;-64
2022/08/11 05:02:46;;;;;;;7.22;2.95;;;;;;;;;;5014394;28;20278;-64
2022/08/11 05:05:30;;;;;;;5.78;2.78;;;;;;;;;;5014867;28;20593;-64
2022/08/11 05:08:13;;;;;;;4.88;3.10;;;;;;;;;;5015209;28;20224;-64
2022/08/11 05:10:44;;;;;;;4.05;2.72;;;;;;;;;;5014221;28;20679;-64
2022/08/11 05:35:10;;;;;;;5.32;3.20;;;;;;;;;;5013514;28;20255;-64
2022/08/11 05:56:59;;;;;;;6.25;3.45;;;;;;;;;;5014580;28;20219;-64
2022/08/11 05:59:25;;;;;;;6.95;3.70;;;;;;;;;;5012879;28;20224;-64
2022/08/11 06:01:51;;;;;;;5.90;3.03;;;;;;;;;;5013122;28;20204;-64
2022/08/11 06:04:22;;;;;;;7.18;3.35;;;;;;;;;;5012524;28;20219;-64
2022/08/11 06:06:50;;;;;;;8.32;3.30;;;;;;;;;;5013706;28;20737;-64
2022/08/11 06:09:19;;;;;;;9.50;3.67;;;;;;;;;;5013462;28;20582;-64
2022/08/11 06:11:44;;;;;;;7.10;3.65;;;;;;;;;;5012692;28;20232;-64
2022/08/11 06:14:10;;;;;;;4.53;3.58;;;;;;;;;;5013122;28;20243;-64
2022/08/11 06:16:35;;;;;;;6.35;3.50;;;;;;;;;;5013028;28;20554;-64
2022/08/11 06:19:00;;;;;;;8.05;3.47;;;;;;;;;;5011745;28;20212;-64
2022/08/11 06:21:27;;;;;;;9.82;3.00;;;;;;;;;;5013748;28;20205;-64
2022/08/11 06:23:53;;;;;;;8.45;3.30;;;;;;;;;;5012991;28;20219;-64
2022/08/11 06:26:19;;;;;;;5.50;3.05;;;;;;;;;;5012939;28;20236;-64
2022/08/11 06:28:45;;;;;;;6.70;3.35;;;;;;;;;;5012768;28;20235;-64
2022/08/11 06:31:12;;;;;;;7.25;3.88;;;;;;;;;;5013277;28;20212;-64
2022/08/11 06:33:42;;;;;;;5.97;3.42;;;;;;;;;;5011929;28;20209;-64
2022/08/11 06:36:15;;;;;;;6.85;3.42;;;;;;;;;;5012195;28;20228;-64
2022/08/11 06:38:53;;;;;;;10.45;3.40;;;;;;;;;;5013672;28;20204;-64
2022/08/11 06:41:29;;;;;;;5.55;3.55;;;;;;;;;;5012528;28;20238;-63
2022/08/11 06:43:58;;;;;;;6.95;3.80;;;;;;;;;;5012351;28;20703;-64
2022/08/11 06:46:26;;;;;;;5.82;3.33;;;;;;;;;;5012838;28;20655;-64
2022/08/11 06:48:52;;;;;;;6.30;3.30;;;;;;;;;;5012856;28;20228;-63
2022/08/11 06:51:17;;;;;;;6.82;3.03;;;;;;;;;;5011626;28;20223;-64
2022/08/11 06:53:43;;;;;;;8.23;4.35;;;;;;;;;;5012232;28;20216;-64
2022/08/11 07:01:45;;;;;;;5.28;3.60;;;;;;;;;;5012028;28;20224;-64
2022/08/11 07:04:10;;;;;;;7.85;3.78;;;;;;;;;;5012823;28;20215;-64
2022/08/11 07:06:37;;;;;;;8.27;4.00;;;;;;;;;;5011659;28;20299;-64
2022/08/11 07:17:41;;;;;;;8.23;3.70;;;;;;;;;;5012847;28;20223;-64
2022/08/11 07:31:07;;;;;;;8.63;3.30;;;;;;;;;;5010134;28;20223;-64
2022/08/11 07:33:41;;;;;;;7.15;4.28;;;;;;;;;;5013159;28;20216;-63
2022/08/11 07:36:06;;;;;;;8.02;4.03;;;;;;;;;;5012258;28;20334;-64
2022/08/11 07:38:47;;;;;;;7.45;4.32;;;;;;;;;;5010874;28;20291;-64
2022/08/11 07:41:13;;;;;;;7.78;4.85;;;;;;;;;;5011013;28;20228;-64
2022/08/11 07:43:39;;;;;;;7.53;4.18;;;;;;;;;;5011783;28;20232;-64
2022/08/11 07:54:16;;;;;;;8.00;3.10;;;;;;;;;;5012371;28;20218;-64
2022/08/11 07:56:41;;;;;;;8.25;3.20;;;;;;;;;;5011341;28;20216;-64
2022/08/11 08:18:14;;;;;;;8.73;3.10;;;;;;;;;;5013269;28;20634;-64
2022/08/11 08:20:41;;;;;;;4.28;2.60;;;;;;;;;;5015594;28;20315;-64
2022/08/11 08:23:06;;;;;;;9.75;3.15;;;;;;;;;;5015618;28;20314;-64
2022/08/11 08:25:33;;;;;;;8.10;3.28;;;;;;;;;;5014359;28;20209;-63
2022/08/11 08:27:59;;;;;;;6.03;3.00;;;;;;;;;;5015115;28;20711;-64
2022/08/11 08:33:08;;;;;;;7.45;2.55;;;;;;;;;;5014932;28;20273;-64
2022/08/11 08:35:34;;;;;;;7.35;3.03;;;;;;;;;;5014879;28;20208;-64
2022/08/11 08:38:00;;;;;;;8.18;2.78;;;;;;;;;;5015587;28;20204;-63
2022/08/11 08:40:25;;;;;;;5.70;2.90;;;;;;;;;;5013732;28;20219;-64
2022/08/11 08:42:53;;;;;;;6.55;2.60;;;;;;;;;;5015992;28;20227;-63
2022/08/11 08:45:19;;;;;;;7.68;2.70;;;;;;;;;;5015243;28;20217;-63
2022/08/11 08:47:46;;;;;;;7.20;2.63;;;;;;;;;;5013796;28;20215;-63
2022/08/11 08:50:12;;;;;;;14.20;3.85;;;;;;;;;;5013982;28;20212;-64
2022/08/11 08:52:39;;;;;;;6.32;2.50;;;;;;;;;;5015523;28;20220;-64
2022/08/11 08:55:05;;;;;;;7.15;2.70;;;;;;;;;;5013299;28;20296;-63
2022/08/11 08:57:31;;;;;;;6.03;2.50;;;;;;;;;;5014452;28;20251;-63
2022/08/11 08:59:56;;;;;;;8.93;2.90;;;;;;;;;;5014221;28;21057;-63
2022/08/11 09:02:23;;;;;;;5.57;2.53;;;;;;;;;;5014181;28;20220;-63
2022/08/11 09:04:48;;;;;;;6.50;2.50;;;;;;;;;;5014089;28;20287;-63
2022/08/11 09:07:14;;;;;;;8.23;2.78;;;;;;;;;;5014998;28;20263;-63
2022/08/11 09:09:43;;;;;;;7.28;2.40;;;;;;;;;;5014225;28;20563;-61
2022/08/11 09:12:09;;;;;;;12.13;2.50;;;;;;;;;;4997433;28;20243;-63
2022/08/11 09:17:20;;;;;;;12.25;2.72;;;;;;;;;;4995484;28;20308;-64
2022/08/11 09:19:46;;;;;;;6.18;2.30;;;;;;;;;;4995422;28;20756;-61
2022/08/11 09:27:38;;;;;;;10.73;2.58;;;;;;;;;;4994428;28;20267;-64
2022/08/11 09:30:05;;;;;;;8.35;2.50;;;;;;;;;;4992965;28;20245;-64
2022/08/11 09:32:31;;;;;;;7.70;2.30;;;;;;;;;;4995493;28;20205;-63
2022/08/11 09:34:57;;;;;;;8.35;2.58;;;;;;;;;;4995197;28;20292;-63
2022/08/11 09:45:45;;;;;;;7.30;2.70;;;;;;;;;;5014180;28;20220;-63
2022/08/11 09:48:10;;;;;;;4.72;1.95;;;;;;;;;;5013190;28;20291;-64
2022/08/11 09:50:38;;;;;;;8.13;2.50;;;;;;;;;;5012426;28;20205;-64
2022/08/11 09:53:04;;;;;;;8.32;2.60;;;;;;;;;;5014362;28;20274;-63
2022/08/11 09:55:30;;;;;;;8.82;2.05;;;;;;;;;;5014444;28;20343;-64
2022/08/11 09:58:13;;;;;;;8.80;2.20;;;;;;;;;;5013976;28;20296;-63
2022/08/11 10:00:39;;;;;;;8.23;2.38;;;;;;;;;;5014067;28;20239;-63
2022/08/11 10:03:11;;;;;;;3.92;2.25;;;;;;;;;;5013917;28;20212;-64
2022/08/11 10:08:22;;;;;;;7.32;2.25;;;;;;;;;;5012750;28;20394;-63
2022/08/11 10:10:47;;;;;;;9.23;2.30;;;;;;;;;;5012766;28;20217;-63
2022/08/11 10:13:15;;;;;;;8.75;2.28;;;;;;;;;;5013024;28;20303;-64
2022/08/11 10:15:41;;;;;;;5.93;2.25;;;;;;;;;;5012644;28;20201;-63
2022/08/11 10:20:51;;;;;;;5.22;2.10;;;;;;;;;;5013850;28;20623;-63
2022/08/11 10:28:45;;;;;;;6.78;1.90;;;;;;;;;;5013000;28;20224;-63
2022/08/11 10:34:00;;;;;;;8.63;2.13;;;;;;;;;;5013256;28;20216;-63
2022/08/11 10:36:26;;;;;;;3.78;2.08;;;;;;;;;;5013147;28;20212;-64
2022/08/11 10:38:51;;;;;;;6.90;2.03;;;;;;;;;;5012416;28;20204;-63
2022/08/11 10:44:01;;;;;;;5.18;1.80;;;;;;;;;;5012266;28;20274;-64
2022/08/11 10:49:10;;;;;;;4.90;1.90;;;;;;;;;;5012225;28;20347;-64
2022/08/11 10:59:47;;;;;;;5.57;1.55;;;;;;;;;;5012243;28;20278;-63
2022/08/11 11:02:13;;;;;;;5.43;1.98;;;;;;;;;;5010825;28;20572;-63
2022/08/11 11:04:43;;;;;;;5.78;1.90;;;;;;;;;;5012207;28;20586;-63
2022/08/11 11:07:14;;;;;;;4.53;1.50;;;;;;;;;;5011112;28;20224;-63
2022/08/11 11:09:42;;;;;;;4.93;1.60;;;;;;;;;;5011864;28;20212;-63
2022/08/11 11:18:00;;;;;;;3.05;1.65;;;;;;;;;;5012932;28;20220;-63
2022/08/11 11:20:25;;;;;;;5.15;1.92;;;;;;;;;;5011373;28;20747;-63
2022/08/11 11:22:52;;;;;;;8.50;1.60;;;;;;;;;;5012326;28;20295;-63
2022/08/11 11:25:19;;;;;;;5.18;1.50;;;;;;;;;;5012849;28;20672;-63
2022/08/11 11:28:01;;;;;;;4.00;1.50;;;;;;;;;;5013046;28;20271;-64
2022/08/11 11:30:28;;;;;;;4.35;1.90;;;;;;;;;;5012054;28;20212;-64
2022/08/11 11:32:54;;;;;;;2.55;1.42;;;;;;;;;;5012869;28;20208;-63
2022/08/11 11:35:25;;;;;;;4.88;1.85;;;;;;;;;;5011499;28;20220;-64
2022/08/11 11:37:50;;;;;;;4.28;1.70;;;;;;;;;;5012626;28;20216;-64
2022/08/11 11:40:20;;;;;;;5.35;1.60;;;;;;;;;;5012229;28;20228;-63
2022/08/11 11:42:45;;;;;;;5.18;1.58;;;;;;;;;;5012060;28;20277;-63
2022/08/11 11:45:11;;;;;;;5.43;1.50;;;;;;;;;;5011138;28;20614;-64
2022/08/11 11:47:36;;;;;;;4.25;1.60;;;;;;;;;;5011336;28;20212;-63
2022/08/11 11:50:01;;;;;;;5.50;1.92;;;;;;;;;;5010363;28;20216;-64
2022/08/11 11:52:27;;;;;;;3.67;1.80;;;;;;;;;;5012900;28;20204;-64
2022/08/11 11:54:54;;;;;;;8.07;1.80;;;;;;;;;;5016947;28;20687;-64
2022/08/11 12:02:49;;;;;;;7.18;1.73;;;;;;;;;;5016588;28;20632;-64
2022/08/11 12:05:14;;;;;;;4.13;1.73;;;;;;;;;;5014468;28;20209;-64
2022/08/11 12:10:23;;;;;;;3.45;1.50;;;;;;;;;;5014862;28;20259;-64
2022/08/11 12:15:33;;;;;;;4.32;1.70;;;;;;;;;;5015122;28;20570;-63
2022/08/11 12:17:58;;;;;;;3.63;1.80;;;;;;;;;;5015757;28;20359;-63
2022/08/11 12:20:24;;;;;;;6.68;1.55;;;;;;;;;;5015989;28;20224;-63
2022/08/11 12:28:17;;;;;;;6.75;2.03;;;;;;;;;;5014820;28;20271;-63
2022/08/11 12:30:46;;;;;;;4.55;1.73;;;;;;;;;;5014885;28;20204;-63
2022/08/11 12:33:12;;;;;;;4.97;1.60;;;;;;;;;;5014991;28;20240;-64
2022/08/11 12:35:37;;;;;;;6.10;1.80;;;;;;;;;;5016035;28;20253;-63
2022/08/11 12:38:02;;;;;;;4.22;1.83;;;;;;;;;;5015273;28;20201;-64
2022/08/11 12:45:58;;;;;;;3.40;1.60;;;;;;;;;;5014116;28;20683;-63
2022/08/11 12:53:55;;;;;;;5.82;1.98;;;;;;;;;;5014818;28;20219;-63
2022/08/11 13:07:16;;;;;;;4.57;1.60;;;;;;;;;;4997664;28;20847;-64
2022/08/11 13:09:42;;;;;;;2.50;1.60;;;;;;;;;;5000204;28;20225;-64
2022/08/11 13:14:51;;;;;;;4.55;1.50;;;;;;;;;;4996399;28;20248;-63
2022/08/11 13:17:23;;;;;;;6.25;1.70;;;;;;;;;;4988742;28;20627;-64
2022/08/11 13:19:48;;;;;;;6.90;1.58;;;;;;;;;;5001120;28;20239;-63
2022/08/11 13:22:17;;;;;;;3.55;1.80;;;;;;;;;;4988035;28;20571;-64
2022/08/11 13:24:42;;;;;;;5.68;1.65;;;;;;;;;;5007156;28;20610;-63
2022/08/11 13:27:07;;;;;;;6.28;1.60;;;;;;;;;;4997965;28;20208;-63
2022/08/11 13:29:34;;;;;;;4.90;1.92;;;;;;;;;;4997434;28;20303;-64
2022/08/11 13:32:00;;;;;;;5.50;1.80;;;;;;;;;;4999830;28;20222;-63
2022/08/11 13:34:26;;;;;;;3.95;2.05;;;;;;;;;;5006590;28;20595;-64
2022/08/11 13:36:52;;;;;;;3.33;1.55;;;;;;;;;;5001098;28;20299;-63
2022/08/11 13:39:17;;;;;;;3.85;1.70;;;;;;;;;;4989752;28;20206;-64
2022/08/11 13:41:43;;;;;;;4.53;2.33;;;;;;;;;;5005601;28;20232;-63
2022/08/11 13:44:11;;;;;;;3.92;1.70;;;;;;;;;;5006315;28;20735;-64
2022/08/11 13:46:36;;;;;;;3.10;1.58;;;;;;;;;;4997122;28;20223;-64
2022/08/11 13:49:01;;;;;;;4.03;1.70;;;;;;;;;;4999382;28;20212;-64
2022/08/11 13:51:33;;;;;;;4.95;1.83;;;;;;;;;;4997533;28;20216;-63
2022/08/11 13:53:59;;;;;;;4.15;1.50;;;;;;;;;;4997397;28;20259;-64
2022/08/11 13:56:24;;;;;;;5.35;1.52;;;;;;;;;;5002034;28;20213;-64
2022/08/11 13:58:49;;;;;;;8.23;1.67;;;;;;;;;;5005895;28;20220;-64
2022/08/11 14:01:15;;;;;;;5.93;1.52;;;;;;;;;;5005490;28;20630;-63
2022/08/11 14:03:40;;;;;;;6.32;1.90;;;;;;;;;;5008371;28;20232;-63
2022/08/11 14:06:07;;;;;;;2.65;1.50;;;;;;;;;;5011714;28;20209;-64
2022/08/11 14:08:33;;;;;;;5.30;1.77;;;;;;;;;;4973720;28;1128401;-64
2022/08/11 14:13:44;;;;;;;5.00;1.70;;;;;;;;;;4995382;28;20260;-64
2022/08/11 14:16:17;;;;;;;4.13;2.20;;;;;;;;;;5000078;28;20225;-64
2022/08/11 14:18:44;;;;;;;6.03;1.77;;;;;;;;;;4992859;28;20644;-63
2022/08/11 14:23:54;;;;;;;4.43;1.70;;;;;;;;;;4994838;28;20220;-63
2022/08/11 14:26:26;;;;;;;6.47;1.75;;;;;;;;;;4992818;28;20672;-64
2022/08/11 14:29:02;;;;;;;7.90;1.80;;;;;;;;;;4993241;28;20217;-63
2022/08/11 14:31:28;;;;;;;3.10;1.60;;;;;;;;;;4991501;28;20213;-63
2022/08/11 14:33:54;;;;;;;6.57;1.73;;;;;;;;;;4993233;28;20216;-63
2022/08/11 14:36:19;;;;;;;4.82;1.88;;;;;;;;;;4993498;28;20228;-64
2022/08/11 14:38:45;;;;;;;3.75;1.65;;;;;;;;;;5008127;28;20565;-63
2022/08/11 14:49:22;;;;;;;8.50;1.92;;;;;;;;;;5012222;28;20682;-64
2022/08/11 14:51:47;;;;;;;7.47;1.70;;;;;;;;;;5013290;28;20205;-63
2022/08/11 14:56:56;;;;;;;2.65;1.60;;;;;;;;;;5013126;28;20315;-63
2022/08/11 14:59:22;;;;;;;3.10;1.50;;;;;;;;;;5011087;28;20287;-63
2022/08/11 15:04:31;;;;;;;3.50;1.63;;;;;;;;;;5004706;28;20258;-64
2022/08/11 15:06:56;;;;;;;6.10;1.88;;;;;;;;;;5010722;28;20209;-64
2022/08/11 15:09:21;;;;;;;7.40;2.00;;;;;;;;;;5012528;28;20213;-63
2022/08/11 15:17:14;;;;;;;5.22;2.00;;;;;;;;;;5012725;28;20239;-63
2022/08/11 15:25:16;;;;;;;7.78;1.63;;;;;;;;;;5013026;28;20251;-64
2022/08/11 15:38:39;;;;;;;4.95;1.65;;;;;;;;;;5012582;28;20259;-63
2022/08/11 15:46:40;;;;;;;6.13;1.77;;;;;;;;;;5011298;28;20219;-64
2022/08/11 15:49:12;;;;;;;6.25;1.70;;;;;;;;;;5010265;28;20299;-64
2022/08/11 15:51:41;;;;;;;4.40;1.73;;;;;;;;;;5011642;28;20267;-64
2022/08/11 15:54:08;;;;;;;4.20;1.60;;;;;;;;;;5012356;28;20584;-64
2022/08/11 15:56:34;;;;;;;4.78;1.80;;;;;;;;;;5011781;28;20697;-64
2022/08/11 16:04:28;;;;;;;5.55;1.63;;;;;;;;;;5010730;28;20275;-64
2022/08/11 16:06:55;;;;;;;2.85;1.60;;;;;;;;;;5012654;28;20259;-64
2022/08/11 16:09:23;;;;;;;3.67;1.67;;;;;;;;;;5012140;28;22553;-64
2022/08/11 16:11:49;;;;;;;4.15;1.90;;;;;;;;;;5010218;28;20261;-64
2022/08/11 16:16:58;;;;;;;3.25;1.45;;;;;;;;;;5011795;28;20644;-63
2022/08/11 16:19:23;;;;;;;4.72;1.60;;;;;;;;;;5012623;28;20212;-64
2022/08/11 16:21:49;;;;;;;5.65;1.88;;;;;;;;;;5012708;28;20224;-64
2022/08/11 16:24:14;;;;;;;4.63;1.50;;;;;;;;;;5010085;28;20217;-64
2022/08/11 16:26:40;;;;;;;8.75;1.75;;;;;;;;;;5011356;28;20209;-64
2022/08/11 16:29:06;;;;;;;5.63;1.65;;;;;;;;;;5012074;28;20679;-65
2022/08/11 16:31:32;;;;;;;6.93;1.60;;;;;;;;;;5010552;28;20223;-64
2022/08/11 16:33:57;;;;;;;4.22;1.55;;;;;;;;;;5010799;28;20239;-63
2022/08/11 16:39:06;;;;;;;29.58;19.92;;;;;;;;;;5010922;28;20266;-64
2022/08/11 16:47:02;;;;;;;108.35;77.97;;;;;;;;;;5013662;28;20231;-65
2022/08/11 16:49:31;;;;;;;48.58;30.05;;;;;;;;;;5014124;28;20220;-64
2022/08/11 16:51:56;;;;;;;79.15;54.65;;;;;;;;;;5013813;28;20295;-64
2022/08/11 16:54:21;;;;;;;11.88;6.80;;;;;;;;;;5015072;28;20240;-64
2022/08/11 16:56:47;;;;;;;4.90;1.80;;;;;;;;;;5015759;28;20278;-64
2022/08/11 16:59:14;;;;;;;3.85;1.70;;;;;;;;;;5014210;28;20687;-64
2022/08/11 17:01:41;;;;;;;11.25;5.30;;;;;;;;;;5009845;28;20694;-64
2022/08/11 17:16:05;;;;;;;7.43;2.70;;;;;;;;;;4984809;28;20600;-64
2022/08/11 17:17:51;;;;;;;3.78;1.40;;;;;;;;;;5005023;28;20223;-63
2022/08/11 17:20:18;;;;;;;9.82;4.13;;;;;;;;;;5000076;28;20240;-63
2022/08/11 17:25:34;;;;;;;5.47;1.77;;;;;;;;;;5000888;28;20216;-63
2022/08/11 17:28:00;;;;;;;6.32;2.97;;;;;;;;;;4995552;28;20717;-63
2022/08/11 17:35:27;;;;;;;9.93;4.15;;;;;;;;;;4994778;28;20251;-64
2022/08/11 17:35:54;;;;;;;5.90;2.55;;;;;;;;;;5004043;28;20891;-64
2022/08/11 17:38:20;;;;;;;5.50;2.83;;;;;;;;;;4994829;28;21893;-64
2022/08/11 17:49:03;;;;;;;4.57;2.45;;;;;;;;;;4997381;28;20224;-62
2022/08/11 17:59:51;;;;;;;7.97;2.60;;;;;;;;;;5004578;28;20234;-64
2022/08/11 18:05:04;;;;;;;25.73;12.77;;;;;;;;;;5017033;28;20223;-64
